Time;durP1;ratioP1;P1;durP2;ratioP2;P2;SDS_P1;SDS_P2;PMS_P1;PMS_P2;Temp;Humidity;BMP_temperature;BMP_pressure;BME280_temperature;BME280_humidity;BME280_pressure;Samples;Min_cycle;Max_cycle;Signal;HPM_P1;HPM_P2
2023/03/15 00:01:07;;;;;;;12.38;2.45;;;0.10;92.50;;;;;;4977562;28;20354;-70
2023/03/15 00:03:36;;;;;;;5.43;1.70;;;0.10;92.40;;;;;;4982294;28;20050;-70
2023/03/15 00:06:03;;;;;;;7.32;1.30;;;0.10;92.30;;;;;;4973417;28;20059;-70
2023/03/15 00:08:34;;;;;;;6.80;1.15;;;0.10;92.10;;;;;;4979304;28;20525;-70
2023/03/15 00:11:01;;;;;;;10.73;1.35;;;0.10;92.30;;;;;;4977464;28;20850;-70
2023/03/15 00:13:28;;;;;;;8.65;1.95;;;0.10;92.60;;;;;;4981058;28;20454;-70
2023/03/15 00:16:02;;;;;;;8.98;1.80;;;0.10;92.50;;;;;;4976079;28;20526;-70
2023/03/15 00:18:29;;;;;;;13.45;1.70;;;0.20;93.00;;;;;;4976171;28;20569;-70
2023/03/15 00:20:56;;;;;;;7.43;0.82;;;0.30;92.40;;;;;;4975636;28;20384;-70
2023/03/15 00:23:23;;;;;;;7.57;1.02;;;0.40;92.30;;;;;;4979990;28;20050;-70
2023/03/15 00:25:51;;;;;;;22.77;2.25;;;0.40;91.80;;;;;;4977604;28;20054;-70
2023/03/15 00:28:18;;;;;;;14.93;1.17;;;0.50;91.80;;;;;;4972843;28;20054;-70
2023/03/15 00:30:45;;;;;;;13.18;1.83;;;0.50;91.40;;;;;;4979498;28;20042;-70
2023/03/15 00:33:13;;;;;;;9.13;1.17;;;0.50;90.90;;;;;;4987508;28;20307;-70
2023/03/15 00:35:42;;;;;;;6.97;1.10;;;0.50;91.30;;;;;;4978132;28;20763;-70
2023/03/15 00:38:10;;;;;;;9.55;1.45;;;0.50;91.20;;;;;;4991598;28;20128;-70
2023/03/15 00:40:37;;;;;;;15.55;1.77;;;0.50;91.30;;;;;;4977363;28;20062;-70
2023/03/15 00:43:04;;;;;;;11.55;0.80;;;0.50;91.30;;;;;;4968810;28;20054;-70
2023/03/15 00:45:31;;;;;;;1.25;0.43;;;0.50;91.00;;;;;;4979185;28;20422;-70
2023/03/15 00:47:58;;;;;;;6.13;0.90;;;0.60;91.00;;;;;;4979014;28;20716;-70
2023/03/15 00:50:25;;;;;;;7.93;1.05;;;0.60;91.00;;;;;;4979903;28;20050;-70
2023/03/15 00:52:52;;;;;;;15.73;1.27;;;0.70;90.70;;;;;;4976542;28;20577;-70
2023/03/15 00:55:20;;;;;;;15.10;1.15;;;0.70;91.20;;;;;;4985309;28;20406;-70
2023/03/15 00:57:47;;;;;;;10.27;0.82;;;0.70;90.60;;;;;;4976003;28;20046;-70
2023/03/15 01:00:23;;;;;;;1.77;0.60;;;0.70;90.60;;;;;;4980502;28;20065;-70
2023/03/15 01:02:52;;;;;;;6.53;1.42;;;0.60;90.50;;;;;;4979730;28;20587;-70
2023/03/15 01:05:20;;;;;;;10.55;0.90;;;0.50;91.40;;;;;;4979375;28;20061;-70
2023/03/15 01:07:47;;;;;;;8.65;1.75;;;0.50;91.50;;;;;;4975961;28;20137;-70
2023/03/15 01:10:15;;;;;;;7.20;0.98;;;0.50;91.30;;;;;;4980432;28;20576;-70
2023/03/15 01:12:42;;;;;;;3.15;0.93;;;0.60;91.20;;;;;;4980010;28;20128;-70
2023/03/15 01:15:12;;;;;;;5.13;1.00;;;0.60;91.60;;;;;;4980453;28;20155;-70
2023/03/15 01:17:39;;;;;;;8.57;1.65;;;0.60;92.10;;;;;;4975257;28;20130;-70
2023/03/15 01:20:07;;;;;;;6.78;0.88;;;0.60;91.70;;;;;;4979838;28;20120;-70
2023/03/15 01:22:34;;;;;;;8.80;0.82;;;0.60;91.70;;;;;;4991172;28;20463;-70
2023/03/15 01:25:01;;;;;;;7.43;1.30;;;0.70;92.00;;;;;;4980373;28;20066;-70
2023/03/15 01:27:28;;;;;;;7.75;0.93;;;0.70;92.50;;;;;;4976178;28;20061;-70
2023/03/15 01:29:54;;;;;;;7.72;1.42;;;0.70;92.60;;;;;;4976589;28;20553;-70
2023/03/15 01:32:21;;;;;;;6.75;1.10;;;0.70;93.80;;;;;;4975875;28;20059;-70
2023/03/15 01:34:48;;;;;;;10.40;1.10;;;0.70;94.90;;;;;;4979945;28;20367;-70
2023/03/15 01:37:15;;;;;;;13.65;1.23;;;0.60;95.90;;;;;;4978398;28;20053;-70
2023/03/15 01:39:41;;;;;;;13.60;1.67;;;0.60;96.20;;;;;;4979855;28;20522;-70
2023/03/15 01:42:09;;;;;;;7.55;0.93;;;0.50;96.80;;;;;;4979200;28;20282;-70
2023/03/15 01:45:25;;;;;;;7.57;1.13;;;0.50;97.20;;;;;;4979378;28;20057;-70
2023/03/15 01:47:52;;;;;;;12.63;1.40;;;0.50;97.90;;;;;;4969459;28;20067;-70
2023/03/15 01:50:24;;;;;;;9.25;0.98;;;0.50;98.00;;;;;;4974989;28;20161;-70
2023/03/15 01:52:51;;;;;;;4.50;1.23;;;0.40;98.40;;;;;;4974316;28;20541;-70
2023/03/15 01:55:19;;;;;;;15.45;1.67;;;0.40;98.70;;;;;;4977704;28;20539;-70
2023/03/15 01:57:54;;;;;;;10.45;1.33;;;0.40;99.00;;;;;;4975774;28;20046;-70
2023/03/15 02:00:21;;;;;;;;;;;0.40;99.00;;;;;;4977911;28;20448;-70
2023/03/15 02:02:51;;;;;;;7.50;1.77;;;0.40;99.20;;;;;;4980540;28;19926;-70
2023/03/15 02:05:23;;;;;;;9.45;2.05;;;0.30;99.60;;;;;;4979881;28;20118;-70
2023/03/15 02:07:53;;;;;;;7.30;1.90;;;0.30;99.90;;;;;;4973271;28;20062;-70
2023/03/15 02:10:58;;;;;;;10.98;2.08;;;0.30;100.00;;;;;;4975794;28;20086;-70
2023/03/15 02:13:27;;;;;;;10.98;2.58;;;0.30;100.00;;;;;;4945790;28;20050;-70
2023/03/15 02:15:55;;;;;;;12.30;2.45;;;0.30;99.90;;;;;;4975312;28;20543;-70
2023/03/15 02:18:22;;;;;;;10.55;2.80;;;0.20;99.80;;;;;;4986138;28;20050;-70
2023/03/15 02:20:52;;;;;;;15.73;2.60;;;0.20;99.50;;;;;;4974800;28;20055;-70
2023/03/15 02:23:21;;;;;;;11.15;2.92;;;0.20;100.00;;;;;;4978242;28;20418;-70
2023/03/15 02:25:52;;;;;;;11.98;2.75;;;0.20;99.80;;;;;;4981823;28;20055;-70
2023/03/15 02:28:19;;;;;;;18.45;2.90;;;0.10;99.70;;;;;;4979025;28;20057;-70
2023/03/15 02:30:47;;;;;;;15.38;3.08;;;0.10;99.90;;;;;;4985236;28;20420;-70
2023/03/15 02:33:24;;;;;;;8.25;2.80;;;0.00;100.00;;;;;;5009826;28;20038;-70
2023/03/15 02:35:51;;;;;;;9.20;2.85;;;0.00;100.00;;;;;;5012330;28;20351;-70
2023/03/15 02:38:21;;;;;;;17.85;2.83;;;0.00;100.00;;;;;;4983049;28;20046;-70
2023/03/15 02:40:50;;;;;;;14.65;2.42;;;0.00;100.00;;;;;;4981748;28;20282;-70
2023/03/15 02:43:22;;;;;;;15.98;2.65;;;0.00;100.00;;;;;;4976877;28;20200;-70
2023/03/15 02:45:49;;;;;;;13.02;2.80;;;0.00;100.00;;;;;;4995376;28;20070;-70
2023/03/15 02:48:17;;;;;;;11.60;2.67;;;-0.10;100.00;;;;;;4978765;28;20572;-70
2023/03/15 02:50:44;;;;;;;16.90;2.58;;;-0.10;100.00;;;;;;4980930;28;20050;-70
2023/03/15 02:53:11;;;;;;;11.23;2.50;;;0.00;100.00;;;;;;4980643;28;20054;-70
2023/03/15 02:55:38;;;;;;;10.10;2.92;;;0.00;100.00;;;;;;4995829;28;20590;-70
2023/03/15 02:58:05;;;;;;;14.90;2.88;;;0.00;100.00;;;;;;4995495;28;20046;-70
2023/03/15 03:00:32;;;;;;;6.22;2.45;;;0.10;100.00;;;;;;4980591;28;20503;-70
2023/03/15 03:02:59;;;;;;;7.72;2.83;;;0.10;100.00;;;;;;4975768;28;20061;-70
2023/03/15 03:05:26;;;;;;;11.55;2.95;;;0.10;100.00;;;;;;4981110;28;20318;-70
2023/03/15 03:07:53;;;;;;;5.03;2.22;;;0.20;100.00;;;;;;4979843;28;20465;-70
2023/03/15 03:10:21;;;;;;;6.80;2.92;;;0.10;100.00;;;;;;4978011;28;20172;-70
2023/03/15 03:12:52;;;;;;;13.38;2.42;;;0.20;100.00;;;;;;4978337;28;20054;-70
2023/03/15 03:15:19;;;;;;;10.48;2.75;;;0.20;100.00;;;;;;4980783;28;20058;-70
2023/03/15 03:17:46;;;;;;;8.45;2.28;;;0.20;100.00;;;;;;4978303;28;20370;-70
2023/03/15 03:20:14;;;;;;;16.55;2.92;;;0.10;100.00;;;;;;4980022;28;20054;-70
2023/03/15 03:22:43;;;;;;;10.07;2.22;;;0.10;100.00;;;;;;4978428;28;20551;-70
2023/03/15 03:25:11;;;;;;;15.32;2.65;;;0.10;100.00;;;;;;4979052;28;20509;-70
2023/03/15 03:27:39;;;;;;;12.85;3.05;;;0.10;100.00;;;;;;4973547;28;20058;-70
2023/03/15 03:30:10;;;;;;;12.63;2.50;;;0.10;100.00;;;;;;4976774;28;20469;-70
2023/03/15 03:32:38;;;;;;;12.80;3.17;;;0.10;100.00;;;;;;4978513;28;20529;-70
2023/03/15 03:35:06;;;;;;;10.25;3.28;;;0.10;100.00;;;;;;4981861;28;20637;-70
2023/03/15 03:37:34;;;;;;;18.13;3.88;;;0.10;100.00;;;;;;4979889;28;20046;-70
2023/03/15 04:40:29;;;;;;;10.43;3.95;;;0.00;100.00;;;;;;4992174;28;20164;-75
2023/03/15 04:42:56;;;;;;;17.13;5.22;;;0.00;100.00;;;;;;4983617;28;20056;-74
2023/03/15 04:45:23;;;;;;;14.32;4.15;;;0.00;100.00;;;;;;5000285;28;20438;-75
2023/03/15 04:47:53;;;;;;;16.77;5.20;;;0.00;100.00;;;;;;4977615;28;20050;-74
2023/03/15 04:50:21;;;;;;;21.55;4.22;;;0.00;100.00;;;;;;4990506;28;20056;-75
2023/03/15 04:52:48;;;;;;;19.60;4.60;;;0.00;100.00;;;;;;4996937;28;20050;-75
2023/03/15 04:55:15;;;;;;;35.35;5.38;;;0.00;100.00;;;;;;4978483;28;20065;-74
2023/03/15 04:57:41;;;;;;;13.77;3.40;;;0.00;100.00;;;;;;4996939;28;20052;-74
2023/03/15 05:00:11;;;;;;;17.98;3.92;;;0.00;100.00;;;;;;4996876;28;20125;-75
2023/03/15 05:02:40;;;;;;;8.85;3.60;;;0.00;100.00;;;;;;4994858;28;20053;-75
2023/03/15 05:05:11;;;;;;;15.75;3.53;;;0.00;100.00;;;;;;4982460;28;20059;-74
2023/03/15 05:07:38;;;;;;;22.98;4.25;;;0.00;100.00;;;;;;4993292;28;20053;-75
2023/03/15 05:10:05;;;;;;;15.85;3.10;;;0.00;100.00;;;;;;4996577;28;20069;-75
2023/03/15 05:12:32;;;;;;;12.15;3.33;;;0.00;100.00;;;;;;4977945;28;20042;-75
2023/03/15 05:14:59;;;;;;;7.50;3.22;;;0.00;100.00;;;;;;4979112;28;20057;-74
2023/03/15 05:17:26;;;;;;;8.30;2.28;;;0.00;100.00;;;;;;4983005;28;20056;-74
2023/03/15 05:19:53;;;;;;;13.27;3.47;;;0.00;100.00;;;;;;4998020;28;20127;-75
2023/03/15 05:22:24;;;;;;;9.68;2.67;;;0.00;100.00;;;;;;4998686;28;20058;-75
2023/03/15 05:24:52;;;;;;;15.52;2.65;;;0.00;100.00;;;;;;5005412;28;20601;-75
2023/03/15 05:27:19;;;;;;;6.18;2.15;;;0.00;100.00;;;;;;4998931;28;20053;-74
2023/03/15 05:29:46;;;;;;;11.70;2.90;;;0.10;100.00;;;;;;4997276;28;20061;-75
2023/03/15 05:32:13;;;;;;;8.90;2.75;;;0.10;100.00;;;;;;4981407;28;20482;-75
2023/03/15 05:34:41;;;;;;;10.07;2.47;;;0.10;100.00;;;;;;4990537;28;20047;-75
2023/03/15 05:37:09;;;;;;;11.75;2.42;;;0.10;100.00;;;;;;4999320;28;20136;-75
2023/03/15 05:39:36;;;;;;;8.38;2.80;;;0.10;100.00;;;;;;4997146;28;20137;-75
2023/03/15 05:42:03;;;;;;;14.25;3.15;;;0.10;100.00;;;;;;4993157;28;20049;-75
2023/03/15 05:44:29;;;;;;;7.07;2.97;;;0.10;100.00;;;;;;4987338;28;20046;-74
2023/03/15 05:46:56;;;;;;;10.40;3.13;;;0.10;100.00;;;;;;4998955;28;20054;-74
2023/03/15 05:49:23;;;;;;;13.38;3.33;;;0.10;100.00;;;;;;4996613;28;20056;-74
2023/03/15 05:51:50;;;;;;;9.80;3.53;;;0.10;100.00;;;;;;4976081;28;20069;-74
2023/03/15 05:54:16;;;;;;;7.60;2.95;;;0.10;100.00;;;;;;5003224;28;20054;-74
2023/03/15 05:56:43;;;;;;;19.95;3.10;;;0.10;100.00;;;;;;4988388;28;20042;-74
2023/03/15 05:59:10;;;;;;;38.22;3.67;;;0.10;100.00;;;;;;4997522;28;20274;-76
2023/03/15 06:01:37;;;;;;;13.02;3.22;;;0.10;100.00;;;;;;4975794;28;20060;-77
2023/03/15 06:07:10;;;;;;;15.32;3.15;;;0.10;100.00;;;;;;5047033;22;20115;-71
2023/03/15 06:09:36;;;;;;;8.38;2.97;;;0.10;100.00;;;;;;4976377;28;20623;-71
2023/03/15 06:12:04;;;;;;;14.40;3.67;;;0.20;100.00;;;;;;4977833;28;20507;-71
2023/03/15 06:14:31;;;;;;;9.32;3.15;;;0.20;100.00;;;;;;4982354;28;20435;-70
2023/03/15 06:16:58;;;;;;;14.73;4.03;;;0.30;100.00;;;;;;4978211;28;20050;-71
2023/03/15 06:19:24;;;;;;;13.02;3.42;;;0.40;100.00;;;;;;4982962;28;20097;-72
2023/03/15 06:21:51;;;;;;;16.30;4.35;;;0.40;100.00;;;;;;4981002;28;20062;-72
2023/03/15 06:24:18;;;;;;;16.25;4.65;;;0.50;100.00;;;;;;4977078;28;20272;-69
2023/03/15 06:26:45;;;;;;;14.93;4.25;;;0.60;100.00;;;;;;4974290;28;20054;-70
2023/03/15 06:29:12;;;;;;;13.77;4.13;;;0.60;100.00;;;;;;4979478;28;20054;-71
2023/03/15 06:31:38;;;;;;;12.93;4.75;;;0.70;100.00;;;;;;4983799;28;20058;-71
2023/03/15 06:34:05;;;;;;;18.63;3.90;;;0.70;100.00;;;;;;4983418;28;20459;-71
2023/03/15 06:36:32;;;;;;;13.95;3.72;;;0.90;100.00;;;;;;4979318;28;20411;-71
2023/03/15 06:38:59;;;;;;;10.45;3.75;;;1.10;100.00;;;;;;4980565;28;20060;-71
2023/03/15 06:41:26;;;;;;;15.63;4.53;;;1.20;99.80;;;;;;4982585;28;20043;-78
2023/03/15 06:43:53;;;;;;;16.67;3.67;;;1.20;98.80;;;;;;4988655;28;20057;-71
2023/03/15 06:46:19;;;;;;;14.02;3.75;;;1.10;98.00;;;;;;4979410;28;20061;-71
2023/03/15 06:48:46;;;;;;;17.33;3.38;;;1.10;98.20;;;;;;4981683;28;20478;-72
2023/03/15 06:51:13;;;;;;;10.75;3.35;;;1.10;98.80;;;;;;4980725;28;20483;-71
2023/03/15 06:53:40;;;;;;;18.77;4.20;;;1.20;99.50;;;;;;4975253;28;20475;-72
2023/03/15 06:56:07;;;;;;;13.98;3.38;;;1.60;99.00;;;;;;4981433;28;20402;-72
2023/03/15 06:58:34;;;;;;;23.55;3.20;;;2.00;96.70;;;;;;4975407;28;20452;-72
2023/03/15 07:01:01;;;;;;;9.70;3.42;;;2.30;95.20;;;;;;4981164;28;20050;-72
2023/03/15 07:03:27;;;;;;;8.20;3.00;;;2.80;93.40;;;;;;4982142;28;20050;-72
2023/03/15 07:05:54;;;;;;;7.93;2.70;;;3.20;92.00;;;;;;4981268;28;20065;-72
2023/03/15 07:08:22;;;;;;;9.85;2.92;;;3.70;87.70;;;;;;4976623;28;20066;-72
2023/03/15 07:10:50;;;;;;;11.57;2.95;;;4.10;85.70;;;;;;4980797;28;20076;-72
2023/03/15 07:13:18;;;;;;;10.38;3.53;;;4.80;84.50;;;;;;4976931;28;20069;-72
2023/03/15 07:15:46;;;;;;;12.25;3.05;;;5.40;82.30;;;;;;4978687;28;20052;-72
2023/03/15 07:18:13;;;;;;;6.15;2.50;;;6.10;79.50;;;;;;4983230;28;20141;-72
2023/03/15 07:20:40;;;;;;;12.32;3.03;;;6.40;76.70;;;;;;4981535;28;20060;-73
2023/03/15 07:23:07;;;;;;;7.55;2.53;;;6.80;75.80;;;;;;4967716;28;21285;-72
2023/03/15 07:25:34;;;;;;;4.00;2.40;;;7.10;73.60;;;;;;4979777;28;20654;-73
2023/03/15 07:28:17;;;;;;;8.98;2.42;;;7.20;73.60;;;;;;4978835;28;20058;-73
2023/03/15 07:30:55;;;;;;;11.05;2.60;;;7.50;72.50;;;;;;4979813;28;20058;-72
2023/03/15 07:33:23;;;;;;;7.43;1.83;;;7.50;71.40;;;;;;4972971;28;20561;-72
2023/03/15 07:35:52;;;;;;;12.13;2.58;;;8.20;71.20;;;;;;4980910;28;20088;-72
2023/03/15 07:38:23;;;;;;;6.88;2.00;;;8.50;70.10;;;;;;4981287;28;20050;-72
2023/03/15 07:40:51;;;;;;;13.63;2.53;;;9.00;68.60;;;;;;4980907;28;20053;-72
2023/03/15 07:43:18;;;;;;;7.90;2.03;;;8.60;68.70;;;;;;4972507;28;20058;-72
2023/03/15 07:45:45;;;;;;;8.15;2.03;;;8.80;69.70;;;;;;4979636;28;20619;-72
2023/03/15 07:48:12;;;;;;;6.97;2.20;;;9.50;68.00;;;;;;4981446;28;20056;-72
2023/03/15 07:50:40;;;;;;;6.05;2.00;;;9.60;65.90;;;;;;4975020;28;20046;-72
2023/03/15 07:53:07;;;;;;;4.32;1.88;;;9.60;66.60;;;;;;4973339;28;20361;-72
2023/03/15 07:55:34;;;;;;;4.88;1.73;;;9.80;64.80;;;;;;4980103;28;20503;-72
2023/03/15 07:58:02;;;;;;;6.90;2.20;;;9.40;66.10;;;;;;4978093;28;20058;-72
2023/03/15 08:00:29;;;;;;;11.43;2.38;;;9.10;67.00;;;;;;4978179;28;20043;-72
2023/03/15 08:02:56;;;;;;;3.72;1.48;;;8.90;68.40;;;;;;4977070;28;20134;-72
2023/03/15 08:05:23;;;;;;;7.30;1.65;;;8.80;68.40;;;;;;4980666;28;20921;-72
2023/03/15 08:07:51;;;;;;;9.60;2.15;;;8.90;68.90;;;;;;4979006;28;20058;-72
2023/03/15 08:10:17;;;;;;;7.50;2.30;;;8.70;67.70;;;;;;4979137;28;20462;-72
2023/03/15 08:12:44;;;;;;;7.55;2.45;;;9.10;68.80;;;;;;4979060;28;20054;-72
2023/03/15 08:15:15;;;;;;;8.65;2.13;;;9.50;69.30;;;;;;4979496;28;20446;-72
2023/03/15 08:17:42;;;;;;;4.22;1.98;;;10.00;63.80;;;;;;4975062;28;20042;-72
2023/03/15 08:20:19;;;;;;;7.13;2.25;;;10.00;65.20;;;;;;4977660;28;20558;-72
2023/03/15 08:22:50;;;;;;;4.28;2.08;;;10.00;66.60;;;;;;4972600;28;20493;-73
2023/03/15 08:25:22;;;;;;;4.90;1.92;;;10.40;65.50;;;;;;4980539;28;20058;-72
2023/03/15 08:27:49;;;;;;;5.97;2.00;;;10.80;64.10;;;;;;4969112;28;20601;-72
2023/03/15 08:30:18;;;;;;;6.53;1.75;;;11.00;63.10;;;;;;4980655;28;20054;-72
2023/03/15 08:32:46;;;;;;;7.05;1.90;;;11.30;64.50;;;;;;4976383;28;20050;-72
2023/03/15 08:35:15;;;;;;;5.60;1.90;;;11.70;60.90;;;;;;4980899;28;20108;-70
2023/03/15 08:37:46;;;;;;;5.15;2.08;;;12.10;61.70;;;;;;4972482;28;20046;-72
2023/03/15 08:40:24;;;;;;;3.45;2.00;;;11.80;61.80;;;;;;4980926;28;20053;-70
2023/03/15 08:42:52;;;;;;;9.90;1.85;;;11.80;60.70;;;;;;4980730;28;20066;-72
2023/03/15 08:45:20;;;;;;;3.72;1.73;;;12.00;60.90;;;;;;4980395;28;20371;-70
2023/03/15 08:47:47;;;;;;;6.15;1.88;;;12.10;59.80;;;;;;4976946;28;20050;-70
2023/03/15 08:50:15;;;;;;;6.03;1.58;;;11.60;60.60;;;;;;4979302;28;20298;-70
2023/03/15 08:52:42;;;;;;;6.75;1.85;;;10.70;62.00;;;;;;4981502;28;20047;-72
2023/03/15 08:55:13;;;;;;;6.45;2.58;;;10.20;65.40;;;;;;4981881;28;20054;-72
2023/03/15 08:57:41;;;;;;;6.32;1.27;;;9.90;62.90;;;;;;4978878;28;20392;-72
2023/03/15 09:00:31;;;;;;;4.20;1.67;;;9.40;62.80;;;;;;4981084;28;20058;-72
2023/03/15 09:02:56;;;;;;;4.60;1.83;;;8.70;63.40;;;;;;4981014;28;20077;-72
2023/03/15 09:05:24;;;;;;;2.67;1.80;;;8.00;65.00;;;;;;4979112;28;20054;-72
2023/03/15 09:07:54;;;;;;;6.20;1.98;;;7.60;68.10;;;;;;4978825;28;20049;-72
2023/03/15 09:10:22;;;;;;;7.15;1.98;;;7.20;69.80;;;;;;4979829;28;20054;-72
2023/03/15 09:12:52;;;;;;;10.35;2.03;;;7.10;71.10;;;;;;4977601;28;20058;-72
2023/03/15 09:15:20;;;;;;;8.30;1.80;;;7.20;72.20;;;;;;4980142;28;20050;-72
2023/03/15 09:17:52;;;;;;;7.43;2.42;;;8.30;69.80;;;;;;4980050;28;20054;-72
2023/03/15 09:20:21;;;;;;;4.18;1.70;;;9.60;66.40;;;;;;4977467;28;20050;-70
2023/03/15 09:22:51;;;;;;;10.77;1.73;;;11.00;63.50;;;;;;4979361;28;20569;-73
2023/03/15 09:25:19;;;;;;;6.53;2.05;;;11.70;59.60;;;;;;4975928;28;20058;-72
2023/03/15 09:27:46;;;;;;;4.82;1.50;;;11.20;61.30;;;;;;4980923;28;20141;-71
2023/03/15 09:30:14;;;;;;;8.50;1.90;;;10.80;60.20;;;;;;4978429;28;20535;-72
2023/03/15 09:32:42;;;;;;;4.88;1.52;;;10.50;64.10;;;;;;4977916;28;20055;-70
2023/03/15 09:35:13;;;;;;;8.65;1.58;;;10.50;60.50;;;;;;4973450;28;20152;-70
2023/03/15 09:37:41;;;;;;;6.82;2.20;;;8.90;65.30;;;;;;4979045;28;20042;-73
2023/03/15 09:40:19;;;;;;;7.10;1.83;;;9.00;65.50;;;;;;4983668;28;20606;-73
2023/03/15 09:42:56;;;;;;;8.77;1.77;;;9.70;65.10;;;;;;4980687;28;20054;-72
2023/03/15 09:45:49;;;;;;;6.88;1.77;;;10.10;62.90;;;;;;4974045;28;20443;-73
2023/03/15 09:48:53;;;;;;;6.60;1.63;;;10.80;63.90;;;;;;4977666;28;20073;-73
2023/03/15 09:51:34;;;;;;;11.38;1.85;;;12.20;59.00;;;;;;4982870;28;20522;-73
2023/03/15 09:54:14;;;;;;;9.77;2.65;;;12.30;57.80;;;;;;4982263;28;20050;-73
2023/03/15 09:56:50;;;;;;;8.30;1.45;;;11.80;57.20;;;;;;4984782;28;20734;-73
2023/03/15 09:59:21;;;;;;;4.05;1.35;;;12.10;60.80;;;;;;4977353;28;20141;-73
2023/03/15 10:01:52;;;;;;;6.20;1.23;;;12.20;56.90;;;;;;4981801;28;20046;-71
2023/03/15 10:04:33;;;;;;;10.48;1.50;;;11.90;57.20;;;;;;4984797;28;20058;-73
2023/03/15 10:07:02;;;;;;;5.63;1.40;;;11.20;58.10;;;;;;4983317;28;20061;-73
2023/03/15 10:09:34;;;;;;;7.28;1.52;;;10.30;58.90;;;;;;4984729;28;20073;-72
2023/03/15 10:12:05;;;;;;;5.60;1.85;;;9.50;63.20;;;;;;4981065;28;20336;-73
2023/03/15 10:14:52;;;;;;;7.85;1.75;;;10.50;63.60;;;;;;4983162;28;20050;-72
2023/03/15 10:17:40;;;;;;;5.70;1.42;;;11.20;63.10;;;;;;4982931;28;20395;-73
2023/03/15 10:20:38;;;;;;;5.28;1.42;;;12.20;59.30;;;;;;4983219;28;20109;-73
2023/03/15 10:23:05;;;;;;;6.80;1.70;;;13.70;56.10;;;;;;4980302;28;20129;-71
2023/03/15 10:25:33;;;;;;;3.85;1.73;;;14.10;55.80;;;;;;4982005;28;20057;-71
2023/03/15 10:28:07;;;;;;;2.55;1.10;;;14.70;56.20;;;;;;4982718;28;20388;-71
2023/03/15 10:30:37;;;;;;;5.30;1.80;;;15.20;55.80;;;;;;4974824;28;20077;-71
2023/03/15 10:33:15;;;;;;;4.70;1.55;;;15.70;51.40;;;;;;4978339;28;20149;-71
2023/03/15 10:35:41;;;;;;;5.15;1.10;;;16.30;47.90;;;;;;4982288;28;20395;-71
2023/03/15 10:38:22;;;;;;;5.38;1.35;;;16.90;49.30;;;;;;4982056;28;20469;-71
2023/03/15 10:40:58;;;;;;;7.15;1.42;;;17.00;48.60;;;;;;4981606;28;20047;-71
2023/03/15 10:43:31;;;;;;;9.68;1.40;;;16.70;49.10;;;;;;4981994;28;20061;-71
2023/03/15 10:46:03;;;;;;;6.40;1.15;;;16.50;48.80;;;;;;4980689;28;20050;-71
2023/03/15 10:48:36;;;;;;;8.45;1.42;;;16.60;48.30;;;;;;4983656;28;20050;-72
2023/03/15 10:51:23;;;;;;;3.47;1.13;;;17.20;47.90;;;;;;4980153;28;20145;-71
2023/03/15 10:54:15;;;;;;;2.67;0.95;;;17.90;44.80;;;;;;4973473;28;20065;-71
2023/03/15 10:56:46;;;;;;;3.53;0.88;;;17.20;47.40;;;;;;4977141;28;20072;-71
2023/03/15 10:59:20;;;;;;;9.10;1.00;;;16.30;43.00;;;;;;4982456;28;20530;-71
2023/03/15 11:01:50;;;;;;;4.65;0.88;;;15.60;49.80;;;;;;4981573;28;20050;-71
2023/03/15 11:04:29;;;;;;;5.95;1.10;;;15.80;49.30;;;;;;4982765;28;20376;-71
2023/03/15 11:07:02;;;;;;;3.58;1.15;;;16.50;47.80;;;;;;4978005;28;20613;-71
2023/03/15 11:09:52;;;;;;;4.60;1.38;;;17.10;45.50;;;;;;4983848;28;20042;-71
2023/03/15 11:12:23;;;;;;;3.22;0.88;;;17.20;46.60;;;;;;4979122;28;20050;-71
2023/03/15 11:15:17;;;;;;;5.18;0.82;;;16.80;48.50;;;;;;4979186;28;20046;-71
2023/03/15 11:17:46;;;;;;;10.02;1.25;;;17.00;42.20;;;;;;4976770;28;20046;-71
2023/03/15 11:20:35;;;;;;;5.05;0.90;;;15.40;50.30;;;;;;4982695;28;20053;-71
2023/03/15 11:23:15;;;;;;;6.45;1.50;;;15.60;49.00;;;;;;4976426;28;20089;-71
2023/03/15 11:25:42;;;;;;;5.03;1.23;;;16.30;43.60;;;;;;4975445;28;20051;-71
2023/03/15 11:28:19;;;;;;;13.75;1.60;;;14.70;45.40;;;;;;4983446;28;20487;-71
2023/03/15 11:30:47;;;;;;;10.23;1.13;;;12.80;49.60;;;;;;4980106;28;20063;-70
2023/03/15 11:33:42;;;;;;;6.88;0.98;;;11.90;52.40;;;;;;4980764;28;20716;-71
2023/03/15 11:36:16;;;;;;;9.63;1.25;;;11.30;52.40;;;;;;4978475;28;20088;-70
2023/03/15 11:38:44;;;;;;;8.48;1.48;;;11.90;55.50;;;;;;4981611;28;20042;-70
2023/03/15 11:41:44;;;;;;;12.88;1.35;;;12.60;54.90;;;;;;4979904;28;20052;-72
2023/03/15 11:44:32;;;;;;;10.60;1.20;;;12.90;50.80;;;;;;4982034;28;20380;-70
2023/03/15 11:47:05;;;;;;;6.05;1.15;;;11.20;51.00;;;;;;4979489;28;20470;-70
2023/03/15 11:49:49;;;;;;;5.40;0.90;;;9.90;54.80;;;;;;4983696;28;20050;-70
2023/03/15 11:52:19;;;;;;;6.65;0.93;;;8.80;60.80;;;;;;4980082;28;20173;-71
2023/03/15 11:54:46;;;;;;;4.55;1.30;;;7.80;62.50;;;;;;4981590;28;20617;-71
2023/03/15 11:57:29;;;;;;;14.45;2.70;;;7.10;66.60;;;;;;4979361;28;20088;-71
2023/03/15 12:00:14;;;;;;;5.28;2.17;;;6.60;70.00;;;;;;4977671;28;20775;-71
2023/03/15 12:02:49;;;;;;;4.17;1.53;;;6.90;70.10;;;;;;4976090;28;20047;-72
2023/03/15 12:05:42;;;;;;;9.93;1.80;;;6.70;71.90;;;;;;4979316;28;20149;-74
2023/03/15 12:08:38;;;;;;;7.38;2.00;;;6.90;73.70;;;;;;4976449;28;20054;-74
2023/03/15 12:11:20;;;;;;;3.50;1.40;;;8.10;74.20;;;;;;4977286;28;20372;-74
2023/03/15 12:14:03;;;;;;;9.80;1.55;;;9.40;69.20;;;;;;4982115;28;20050;-73
2023/03/15 12:16:36;;;;;;;11.07;1.13;;;11.30;65.50;;;;;;4974713;28;20357;-74
2023/03/15 12:19:24;;;;;;;2.65;1.13;;;12.90;59.20;;;;;;4980794;28;20441;-74
2023/03/15 12:21:53;;;;;;;4.38;1.00;;;13.90;49.80;;;;;;4980350;28;20057;-72
2023/03/15 12:24:25;;;;;;;3.70;0.98;;;13.10;52.50;;;;;;4981749;28;20061;-72
2023/03/15 12:27:00;;;;;;;6.68;1.20;;;11.50;51.70;;;;;;4978555;28;20054;-72
2023/03/15 12:29:31;;;;;;;5.88;1.27;;;10.10;57.60;;;;;;4981563;28;20058;-73
2023/03/15 12:32:00;;;;;;;4.22;1.20;;;8.60;59.10;;;;;;4979724;28;20153;-73
2023/03/15 12:34:45;;;;;;;6.63;1.48;;;7.70;62.50;;;;;;4981552;28;20046;-73
2023/03/15 12:37:41;;;;;;;2.50;0.82;;;7.30;66.50;;;;;;4980231;28;20054;-73
2023/03/15 12:40:14;;;;;;;4.00;0.85;;;8.80;64.40;;;;;;4971092;28;20046;-74
2023/03/15 12:42:40;;;;;;;6.20;1.15;;;10.70;56.10;;;;;;4979206;28;20038;-71
2023/03/15 12:45:16;;;;;;;12.13;0.93;;;12.00;57.00;;;;;;4981698;28;20054;-73
2023/03/15 12:47:49;;;;;;;4.55;0.82;;;13.20;50.20;;;;;;4981278;28;20078;-74
2023/03/15 12:50:35;;;;;;;6.25;1.15;;;14.10;51.60;;;;;;4978466;28;20058;-74
2023/03/15 12:53:15;;;;;;;4.90;1.02;;;14.50;51.30;;;;;;4973815;28;20061;-72
2023/03/15 12:55:42;;;;;;;6.10;0.90;;;15.20;51.30;;;;;;4977638;28;20042;-72
2023/03/15 12:58:14;;;;;;;2.78;1.13;;;15.30;49.70;;;;;;4982474;28;20062;-72
2023/03/15 13:00:43;;;;;;;2.33;1.02;;;14.90;51.20;;;;;;4978916;28;20046;-72
2023/03/15 13:03:25;;;;;;;2.40;0.90;;;16.00;49.50;;;;;;4975391;28;20286;-72
2023/03/15 13:06:10;;;;;;;6.95;1.17;;;15.40;44.50;;;;;;4972440;28;20120;-72
2023/03/15 13:08:43;;;;;;;4.67;1.17;;;13.90;47.60;;;;;;4979771;28;20097;-73
2023/03/15 13:11:28;;;;;;;2.67;0.93;;;12.00;50.90;;;;;;4979714;28;20050;-73
2023/03/15 13:14:03;;;;;;;7.70;0.95;;;11.10;54.10;;;;;;4979714;28;20053;-73
2023/03/15 13:17:16;;;;;;;3.40;0.90;;;10.80;53.00;;;;;;4979536;28;20061;-72
2023/03/15 13:19:45;;;;;;;5.85;1.73;;;10.30;53.10;;;;;;4939868;28;20483;-72
2023/03/15 13:22:43;;;;;;;6.18;1.10;;;9.60;55.90;;;;;;4970854;28;20082;-72
2023/03/15 13:25:45;;;;;;;2.47;0.90;;;9.10;58.60;;;;;;4980457;28;20054;-72
2023/03/15 13:28:22;;;;;;;2.90;0.90;;;8.60;58.20;;;;;;4970783;28;20237;-72
2023/03/15 13:30:54;;;;;;;5.82;1.15;;;8.70;57.80;;;;;;4978358;28;20502;-72
2023/03/15 13:33:28;;;;;;;4.93;1.00;;;8.10;58.30;;;;;;4978905;28;20526;-72
2023/03/15 13:35:55;;;;;;;6.20;1.00;;;7.80;61.40;;;;;;4978133;28;20065;-72
2023/03/15 13:38:26;;;;;;;6.47;1.27;;;7.80;61.90;;;;;;4974227;28;20117;-72
2023/03/15 13:40:55;;;;;;;5.22;1.05;;;8.50;65.40;;;;;;4977526;28;20564;-72
2023/03/15 13:43:36;;;;;;;4.32;0.73;;;9.40;63.40;;;;;;4978709;28;20050;-73
2023/03/15 13:46:03;;;;;;;5.47;1.20;;;9.80;61.90;;;;;;4976484;28;20400;-72
2023/03/15 13:48:34;;;;;;;9.10;0.82;;;9.90;60.50;;;;;;4981821;28;20084;-72
2023/03/15 13:51:17;;;;;;;2.15;0.52;;;10.10;57.70;;;;;;4977217;28;20483;-72
2023/03/15 13:53:47;;;;;;;4.80;1.02;;;9.80;57.20;;;;;;4978394;28;21336;-72
2023/03/15 13:56:19;;;;;;;3.47;0.80;;;8.90;57.80;;;;;;4974052;28;20385;-72
2023/03/15 13:58:48;;;;;;;3.97;0.93;;;8.50;58.50;;;;;;4981076;28;20425;-72
2023/03/15 14:01:16;;;;;;;6.00;1.02;;;8.10;61.10;;;;;;4978210;28;20051;-72
2023/03/15 14:03:48;;;;;;;4.35;0.95;;;7.90;61.30;;;;;;4977901;28;20085;-72
2023/03/15 14:06:22;;;;;;;5.32;1.02;;;7.50;63.70;;;;;;4977076;28;20495;-72
2023/03/15 14:08:53;;;;;;;7.57;1.10;;;7.30;64.80;;;;;;4973195;28;20058;-72
2023/03/15 14:11:23;;;;;;;7.32;0.77;;;7.10;64.20;;;;;;4977092;28;20050;-73
2023/03/15 14:13:57;;;;;;;10.10;1.27;;;6.70;64.10;;;;;;4978969;28;20062;-72